Scroll down
FLIGHT INFORMATION
Lufthansa Cargo

GEC8430

At Arrival Gate

EDDF
 ZBAA
DATE: 2021-02-11
GATE: F211
GATE DEPARTURE: 21:41
TAKEOFF: 21:50
DATE: 2021-02-12
GATE:  -
LANDING: 06:38
GATE ARRIVAL: 06:48
FLIGHT DATA
Crew: 
Speed: 
887 kph
Altitude: 
35,028 ft
Stage Length: 
7,788.7 km
Block Time: 
9.1 hrs
Flight Time: 
8.8 hrs
Fuel Used: 
64,887 kg
Cleared Route: EDDF DF149 MTR TOBAK SWALM FULNO ERSET ERSIL MAXOT ESOBU MITRU IXUVU GALMA DESAR DIDGI MOSEX PEPOL OBANI SUBIX DENKO DEKUT EBOGU GRUDA OSKUD TUROL BARGU OTRIV BOKSU ABEZE IRKAL LAFAT RAMBE BENIM RATIN AMKUK BAPRO AGLAN GIDLI DIPOP ELMOD OGDAT TEKBO EKPIR NENVA IBROT DOGOB INKEB MISMU LOGBI NAMER UNORO BESLO RIMIP GEMKI NATBI BAKTU NOGRI MIPMA ASKAL DIFAN LIGTU LOMBI INLEB GOGTA ALUMA KUSEB MOTOG KEROM OSGOP OKDEG OKETI NEKLI BIKMI BESUP ABESA LABAS PERUG NR LAGOP NILAN GIMUK NOSPI SURUB DEKAN TISUP TR GINOM HATGA BULAG NOMUN GEREL TANAN SUDAL LIMAR SND INTIK ESMEP LHT TMR BIKUT GUVBA AA463 AA462 AA441 RW36R
TRACK DATA
50,000 ft 1,000 kts
AIRCRAFT INFO AND CUMULATIVE STATS
Aircraft Type: 
B77LF
Registration: 
SELCAL: 
MQAP
MSN/LN: 
41678 / 1274
Operator: 
Total Flights: 
13
Total Block Time: 
80.3 hrs
Total Flight Time: 
77.4 hrs
Total Fuel Used: 
613,913 kg
DATALINK LOG | Newest first | Current as of: 2022-11-30 11:35:57
LABEL SEQUENCE CONTENT Dn/Up
QD494606:48 20.6▼ Dn
QC403806:38▼ Dn
2U2617ZBSJ 120600Z 08002MPS 360V170 3500 HZ NSC 14/M02 Q1019 NOSIG▲ Up
2U2617ZBAA 120600Z VRB01MPS 4500 HZ NSC 15/M04 Q1019 NOSIG▲ Up
2S2825ZBAA ZBSJ▼ Dn
2U5334ZBSJ 120500Z 07003MPS 020V110 2800 HZ NSC 13/M02 Q1020 BECMG TL0600 3200▲ Up
2U5334ZBAA 120530Z VRB02MPS 4500 HZ NSC 14/M02 Q1019 NOSIG▲ Up
2S5357ZBAA ZBSJ▼ Dn
GA5366GATE PENDING▲ Up
GR5356ZBAA 06:39 MAAS 00 YP/UM 0/0 WCHR/S/C 0/0/0 HI-VAL YES▼ Dn
2U0813ZBSJ 112100Z 33003MPS 3000 HZ NSC 01/M04 Q1017 NOSIG▲ Up
2U0813ZBAA 112130Z VRB01MPS 2500 R36L/P2000N R36R/P2000N R01/1400U BR NSC M04/M05 Q1018 NOSIG▲ Up
GA1037GATE PENDING▲ Up
GR1027ZBAA 06:42 MAAS 00 YP/UM 0/0 WCHR/S/C 0/0/0 HI-VAL YES▼ Dn
2S1026ZBAA ZBSJ▼ Dn
QB520821:50▼ Dn
QA425921:41 163.8▼ Dn
2U2154EDDF 112050Z 02009KT 9999 FEW040 M04/M09 Q1030 R07C/09//95 R07R/09//95 R18/09//95 NOSIG▲ Up
2S2239EDDF▼ Dn
Q02139[LINK ACK]▲ Up
Q02139[LINK TEST]▼ Dn


AIRCRAFT HISTORY
FLIGHT DATE FLIGHT NO. ORIGIN DESTINATION CLEARED ROUTE BLOCK TIME FLIGHT TIME FUEL USED PILOT
2021-08-05GEC805LLBG EDDF LLBG DAFNA VELOX ANANE ESERI GENOS PEDER EVENO EXELA BENEM BIRPU DAL KEKIK SONEN ULKAN IMR RIKSO ERESO LMO EVIVI EDIKA BAVGA OKANA SOMUN PODET SIMBA NENUM AKINI NIMDI ERNAS GOLMO REDNI ASPAT GIMAX FAWUR EDDF3.9 hrs3.7 hrs67,938 lbRobin Oeverby
2021-07-21GEC8340EDDF LLBG EDDF CINDY HAREM LAMPU NOMBO ELVAG RIXED DODIL REDVO RIDAR LELTA MAH LATLO OBEDI PODET SOMUN NISVA USALI OTKOK RODIP PIBOM IDILO BELGI CNK SUDES DUGLA NILER KULAR NESIL LAMSA EDISI TOMBI IDAKU PIKOG ZUKKO LLBG3.8 hrs3.6 hrs58,614 lbRobin Oeverby
2021-03-16GEC8171KJFK EDDF KJFK BETTE ACK BRADD SCOTS JOOPY 4950N 5240N 5330N MALOT GISTI SLANY STU LUFTU DIKAS DEZZU GAVGO KENET CPT NORRY LINDY GOXUL BIG DIKVU LAVRI EMKAD UMTUM DVR KONAN KOK FERDI BUPAL REMBA SPI PESOV TOBOP NIVNU RASVO PIPEP UNOKO IBVIL MANUV RAMOB DF401 DF403 DF409 DF410 DF411 DF412 DF413 DF414 DF415 DF416 DF626 RW25L7 hrs6.8 hrs121,279 lbEmanuel Hagen
2021-03-16GEC8171KATL KJFK KATL LIDAS ERWIN PHIIL LAGGR MULSN GRD DARRL IDDAA TYI ORF SAWED KALDA DUNFE SWL RADDS SIE BOTON HOGGS PANZE KARRS CAMRN ZETAL RW04R1.8 hrs1.6 hrs23,413 lbEmanuel Hagen
2021-03-15GEC8170EDDF KATL EDDF DF234 DF233 DF132 TABUM LIKSI LORPA MARUN ARPEG BADGO ABILU RKN GODOS ROXAT NATEB TLA GOW ETILO 6020N 6030N 6040N 5850N DORYY MT YYB NOSIK CRL NELLS IDEAS ANEWA MAYZE JECKA ROD OCASE ENGRA SOGEE LORNN DAREE STRWY ONDRE SMELY FRYES SHURT REMAC DACTL STUMP HRDEY RW09L9.5 hrs9.3 hrs162,060 lbEmanuel Hagen
2021-03-12GEC8343LLBG EDDF MATOV SUVAS TEZAK USEBE OTHON VAXOS FOXLI RDS LARKI URNIL IKARO PIPEN MES NEMIS MOCNA LUPIS GIKAS DIKNI FSK DISOR LONTA DOLEV MITNO LURID PETOV SUBEN ERMEL SPESA CHA DF606 DF610 DF611 DF612 DF613 DF614 DF615 DF616 DF626 RW25L4.2 hrs4 hrs72,286 lbEmanuel Hagen
2021-03-12GEC8346EDDF LLBG EDDF RID AMTIX CINDY HAREM LAMPU NOMBO ELVAG RIXED DODIL REDVO RIDAR LELTA MAH LATLO OBEDI PODET SOMUN NISVA USALI OTKOK RODIP PIBOM IDILO BELGI CNK SUDES DUGLA NILER KULAR NESIL LAMSA EDISI TOMBI IDAKU PIKOG ZUKKO KONFO AMMOS VETEK BAGAG PITAT DIVLA TADOV HADAS RABIN RW263.5 hrs3.3 hrs52,506 lbEmanuel Hagen
2021-02-22GEC8255SBRF EDDF SBRF MOVLA AMBET VUKSU FNR UTRAM NEURA PUGUN NOISE ERETU MAROA DELAX BOTNO ORABI GUNET ETIBA BIPET DEREV LZR KORAL SONSO ESS NIRAL OSDAM ADUBI PISIG VJF MAR ALCOL LOGRO ETANA VTB PALIO SEGRE LARDA RONNY TOPTU GONUP TOU GAI MAKIL DITEV MEN NINUN MEZIN LATAM OTROT ETREK LUXAN ARKOX LTP GIPNO NAVLA SOPLO OMASI KINNI MOLUS SOSAL TELNO KORED KONOL BERSU SUREP DITON ZUE SONOM LADOL EMPAX NELLI KOVAN KISEK XINLA XORBO ADNIS SPESA CHA DF606 DF610 DF611 DF612 DF613 DF614 DF615 DF616 DF626 RW25L9.3 hrs9 hrs168,798 lbEmanuel Hagen
2021-02-22GEC8255SBKP SBRF SBKP BOCAS ILSES KP006 UTGER AKVUM UBRIR MAVMO UKAKI MOXIK OPKES PONVU BHZ MUKDI KOKSU ANBEK MUMEN ERISA VUTNO LIBRA PUPVU OBDUD ELEFA NUXIL DUBLA KOGBU BORBA ADOLF TOMAS BUTED ZIPAR BUVAD RF015 RF017 RF003 RW362.7 hrs2.6 hrs42,567 lbEmanuel Hagen
2021-02-21GEC8264EDDF SBKP EDDF RID ANEKI NEKLO BADLI PABLA HERBI NATOR ULMES KOGAS BALSI KOTIT RETNO DOTIG GIROL TUPOX MTG DIVKO NILDU BISBA BGR NENDA BCN RODRA PEXOT EBROX LOTOS TORDU DIKUT SOPET VLC SERRA ASTRO POBOS XEBAR YES MAMIS BAZAS VIBAS MGA BRIKE VJF TAVSI RUNAX IBALU ERMED TOVRA VEDOD TERTO LIMAL ISOKA IPERA CVS POMAT SAGMA ASEBA TASIL ORARO SALPU INTOL VUNOK FEMUR IBAGA NTL RUMBA KOGDA NEUMA ILNOT ZIPAR BUTED TOMAS SAPSI UGUDI UTKUD VUKPO PORBA NITBO TOSOP MOPSO MOTBO UTGIR OPVUK VAPAR EPDIM NISTI DEPOT CNF XOMOD IVTEK VULER EDNOT OPRUT ENTIT UTGUT VUGMU UMRIX OBDIK DADGO RW1511.7 hrs11.6 hrs207,926 lbEmanuel Hagen
2021-02-12GEC8433RKSI EDDF RKSI SI707 SI713 SONJA NOPIK BINIL ANSIM NOGON OLBIM AGAVO IKEKA SEBLI WEH FZ TEKAM HCH DOVIV VIDEL TEMAD DUMAP CG LADIX SOTMU HUR IDKEX AVMOS ASILA UNTEN ERVEB POLHO MODUN ZAMUS GOBEZ PRING SERNA GIROK BABTA ADIDA DOBOS BD BUMER LONKA RO USOPA SURIP NOVRA RONIK CE SOTIM SOREB PAROM NJC TETSI APRAN ULGUN OGIKA NEGNA LARTU ABGIL SORLI NETLU OGROM OSKEL SOGTE BAPES GUDES IDLIR ERSOM UMTAK ODNUS ROMUM GITOT ADLIN RUROS NEPEN MOGPI IDRAK TUBNI UMUTA BAPOK UMODI TURAL OKBES RANVA RESMO SOKVA GARSO RONUN OKPAN KUNER BEZMI LUXAL GOBRA UNVOX VAVUN ALUKA KOSIX NIMAB MAIXE LASTO ABLUM ROBEL GAPLA DEMAB SOLVU KERAX GED DF437 DF439 DF441 DF442 DF443 DF444 DF654 RW07R12.1 hrs11.7 hrs212,690 lbEmanuel Hagen
2021-02-12GEC8430ZBAA RKSI ZBAA AA410 AA411 LULTA AA516 MUGLO OTBUL VAPGU MUDOT ORAVA UNSEK ALARA MAKNO NUNDU DOBGA POVAG SANKO OBDIS DONVO AGAVO RILRO GONAV BODOL REBIT COWAY PINGO CW001 CW002 CW003 CW004 CW005 PAMBI RW33L1.7 hrs1.4 hrs20,320 lbEmanuel Hagen
2021-02-11GEC8430EDDF ZBAA EDDF DF149 MTR TOBAK SWALM FULNO ERSET ERSIL MAXOT ESOBU MITRU IXUVU GALMA DESAR DIDGI MOSEX PEPOL OBANI SUBIX DENKO DEKUT EBOGU GRUDA OSKUD TUROL BARGU OTRIV BOKSU ABEZE IRKAL LAFAT RAMBE BENIM RATIN AMKUK BAPRO AGLAN GIDLI DIPOP ELMOD OGDAT TEKBO EKPIR NENVA IBROT DOGOB INKEB MISMU LOGBI NAMER UNORO BESLO RIMIP GEMKI NATBI BAKTU NOGRI MIPMA ASKAL DIFAN LIGTU LOMBI INLEB GOGTA ALUMA KUSEB MOTOG KEROM OSGOP OKDEG OKETI NEKLI BIKMI BESUP ABESA LABAS PERUG NR LAGOP NILAN GIMUK NOSPI SURUB DEKAN TISUP TR GINOM HATGA BULAG NOMUN GEREL TANAN SUDAL LIMAR SND INTIK ESMEP LHT TMR BIKUT GUVBA AA463 AA462 AA441 RW36R9.1 hrs8.8 hrs143,051 lbEmanuel Hagen